Flight Track Log - Related Links

Times and Time Zones

All times are in EDT time to prevent confusion due to time zone crossing. See the BAW357 flight status page for this flight to view local times or setup timezone preferences in your user account.

Time Position Orientation Groundspeed Altitude Reporting Facility
EDT Latitude Longitude Course Direction KTS MPH feet Rate Location/Type
Wed 04:00:49 PM 43.6531 7.2113 45° Northeast 120 138 100  Level FlightAware ADS-B (LFMD / CEQ)
Wed 04:01:08 PM 43.6628 7.2246 45° Northeast 157 181 500 1,800 Climbing FlightAware ADS-B (LFMD / CEQ)
Wed 04:01:29 PM 43.6695 7.2417 86° East 157 181 1,300 1,800 Climbing FlightAware ADS-B (LFMD / CEQ)
Wed 04:01:48 PM 43.6634 7.2606 135° Southeast 180 207 1,700 1,231 Climbing FlightAware ADS-B (LFMD / CEQ)
Wed 04:02:08 PM 43.6499 7.2764 141° Southeast 203 234 2,100 1,200 Climbing FlightAware ADS-B (LFMD / CEQ)
Wed 04:02:28 PM 43.6339 7.2946 139° Southeast 240 276 2,500 2,195 Climbing FlightAware ADS-B (LFMD / CEQ)
Wed 04:02:49 PM 43.6149 7.3094 169° South 237 273 3,600 3,220 Climbing FlightAware ADS-B (LFMD / CEQ)
Wed 04:03:09 PM 43.5938 7.3041 212° Southwest 228 262 4,700 3,538 Climbing FlightAware ADS-B (LFMD / CEQ)
Wed 04:03:28 PM 43.5817 7.2821 252° West 222 255 5,900 3,538 Climbing FlightAware ADS-B (LFMD / CEQ)
Wed 04:03:48 PM 43.5807 7.2544 277° West 220 253 7,000 2,550 Climbing FlightAware ADS-B (LFMD / CEQ)
Wed 04:04:08 PM 43.5856 7.2261 298° West 247 284 7,600 2,049 Climbing FlightAware ADS-B (LFMD / CEQ)
Wed 04:04:29 PM 43.6038 7.1980 317° Northwest 273 314 8,400 3,000 Climbing FlightAware ADS-B (LFMD / CEQ)
Wed 04:04:50 PM 43.6228 7.1740 317° Northwest 273 314 9,700 2,557 Climbing FlightAware ADS-B (LFMD / CEQ)
Wed 04:05:30 PM 43.6606 7.1242 316° Northwest 317 365 11,000 1,895 Climbing FlightAware ADS-B (LFMD / CEQ)
Wed 04:06:06 PM 43.6956 7.0778 316° Northwest 342 394 12,100 2,241 Climbing FlightAware ADS-B (LFMD / CEQ)
Wed 04:08:08 PM 43.8772 6.9116 327° Northwest 386 444 16,900 2,429 Climbing FlightAware ADS-B (LFML / MRS)
Wed 04:08:49 PM 43.9404 6.8556 327° Northwest 388 447 18,700 2,341 Climbing FlightAware ADS-B (LFML / MRS)
Wed 04:09:30 PM 44.0024 6.8005 327° Northwest 397 457 20,100 1,875 Climbing FlightAware ADS-B (LFML / MRS)
Wed 04:10:09 PM 44.0636 6.7461 327° Northwest 407 468 21,200 1,800 Climbing FlightAware ADS-B (LFML / MRS)
Wed 04:10:50 PM 44.1294 6.6876 327° Northwest 413 475 22,500 1,926 Climbing FlightAware ADS-B (LFML / MRS)
Wed 04:11:30 PM 44.1929 6.6308 327° Northwest 413 475 23,800 1,692 Climbing FlightAware ADS-B (LFML / MRS)
Wed 04:12:08 PM 44.2541 6.5759 327° Northwest 421 484 24,700 1,412 Climbing FlightAware ADS-B (LFML / MRS)
Wed 04:12:38 PM 44.3043 6.5307 327° Northwest 425 489 25,400 2,129 Climbing FlightAware ADS-B (EHTE)
Wed 04:13:10 PM 44.3561 6.4843 327° Northwest 410 472 26,900 2,057 Climbing FlightAware ADS-B (LFML / MRS)
Wed 04:13:48 PM 44.4153 6.4309 327° Northwest 414 476 27,800 935 Climbing FlightAware ADS-B (EHTE)
Wed 04:14:27 PM 44.4796 6.3727 327° Northwest 430 495 28,100 963 Climbing FlightAware ADS-B (EHTE)
Wed 04:15:09 PM 44.5498 6.3092 327° Northwest 428 493 29,100 1,443 Climbing FlightAware ADS-B (LFML / MRS)
Wed 04:15:46 PM 44.6079 6.2563 327° Northwest 425 489 30,000 1,481 Climbing FlightAware ADS-B (EHTE)
Wed 04:16:26 PM 44.6744 6.1958 327° Northwest 422 486 31,000 1,600 Climbing FlightAware ADS-B (EHTE)
Wed 04:17:01 PM 44.7344 6.1411 327° Northwest 412 474 32,000 1,342 Climbing FlightAware ADS-B (EHTE)
Wed 04:17:42 PM 44.7978 6.0828 327° Northwest 416 479 32,700 1,171 Climbing FlightAware ADS-B (EHTE)
Wed 04:18:23 PM 44.8607 6.0251 327° Northwest 412 474 33,600 1,443 Climbing FlightAware ADS-B (EHTE)
Wed 04:19:01 PM 44.9172 5.9729 327° Northwest 405 466 34,600 1,310 Climbing FlightAware ADS-B (EHTE)
Wed 04:19:50 PM 45.0007 5.8959 327° Northwest 399 459 35,500 1,024 Climbing FlightAware ADS-B (LFML / MRS)
Wed 04:20:23 PM 45.0521 5.8482 327° Northwest 401 461 36,000 833 Climbing FlightAware ADS-B (EHTE)
Wed 04:21:02 PM 45.1102 5.7944 327° Northwest 401 461 36,500 675 Climbing FlightAware ADS-B (EHTE)
Wed 04:21:43 PM 45.1755 5.7335 327° Northwest 404 465 36,900 614 Climbing FlightAware ADS-B (EHTE)
Wed 04:22:30 PM 45.2495 5.6644 327° Northwest 408 470 37,400 621 Climbing FlightAware ADS-B (LFML / MRS)
Wed 04:23:10 PM 45.3127 5.6050 326° Northwest 409 471 37,800 480 Climbing FlightAware ADS-B (LFML / MRS)
Wed 04:23:45 PM 45.3691 5.5521 327° Northwest 416 479 38,000 150 Climbing FlightAware ADS-B (LFML / MRS)
Wed 04:24:30 PM 45.4409 5.4846 326° Northwest 419 482 38,000  Level FlightAware ADS-B (EHTE)
Wed 04:25:50 PM 45.5787 5.3839 337° Northwest 432 497 38,000  Level FlightAware ADS-B (EHTE)
Wed 04:26:29 PM 45.6457 5.3422 337° Northwest 433 498 38,000  Level FlightAware ADS-B (EHTE)
Wed 04:27:28 PM 45.7552 5.2741 336° Northwest 429 494 38,000  Level FlightAware ADS-B (EHTE)
Wed 04:28:07 PM 45.8306 5.2269 336° Northwest 429 494 38,000  Level FlightAware ADS-B (EHTE)
Wed 04:49:44 PM 48.2251 3.4673 332° Northwest 430 495 38,000  Level FlightAware ADS-B
Wed 04:50:00 PM 47.4543 3.7449 327° Northwest  Level Estimated
Wed 04:50:47 PM 48.3349 3.3803 332° Northwest 431 496 38,000  Level FlightAware ADS-B
Wed 04:51:46 PM 48.4092 3.3212 332° Northwest 432 497 38,000  Level FlightAware ADS-B
Wed 04:52:48 PM 48.5433 3.2140 332° Northwest 430 495 38,000  Level FlightAware ADS-B
Wed 04:54:15 PM 48.6202 3.1524 332° Northwest 428 493 38,000  Level FlightAware ADS-B (EGLF / FAB)
Wed 04:55:00 PM 48.6996 3.0885 332° Northwest 427 491 38,000  Level FlightAware ADS-B (EGLF / FAB)
Wed 04:55:42 PM 48.7715 3.0303 332° Northwest 427 491 38,000  Level FlightAware ADS-B (EGLF / FAB)
Wed 04:56:22 PM 48.8419 2.9732 332° Northwest 429 494 38,000  Level FlightAware ADS-B (EGLF / FAB)
Wed 04:57:02 PM 48.9120 2.9161 332° Northwest 429 494 38,000  Level FlightAware ADS-B (EGLF / FAB)
Wed 04:57:42 PM 48.9814 2.8594 332° Northwest 429 494 38,000  Level FlightAware ADS-B (EGLF / FAB)
Wed 04:58:24 PM 49.0540 2.7998 332° Northwest 430 495 38,000  Level FlightAware ADS-B (EGLF / FAB)
Wed 04:58:55 PM 49.1124 2.7550 332° Northwest 424 488 38,000  Level FlightAware UK
Wed 04:59:01 PM 49.1196 2.7457 332° Northwest 432 497 38,000  Level FlightAware ADS-B (EGLF / FAB)
Wed 04:59:42 PM 49.1916 2.6866 332° Northwest 433 498 38,000  Level FlightAware ADS-B (EGLF / FAB)
Wed 05:00:21 PM 49.2602 2.6300 332° Northwest 434 499 38,000  Level FlightAware ADS-B (EGLF / FAB)
Wed 05:00:54 PM 49.3177 2.5824 331° Northwest 427 491 38,000  Level FlightAware ADS-B (LERS / REU)
Wed 05:01:25 PM 49.3757 2.5344 331° Northwest 417 480 38,000  Level FlightAware UK
Wed 05:01:35 PM 49.3924 2.5202 332° Northwest 434 499 38,000  Level FlightAware ADS-B
Wed 05:02:13 PM 49.4603 2.4636 332° Northwest 434 499 38,000  Level FlightAware UK
Wed 05:02:24 PM 49.4692 2.4560 332° Northwest 435 501 38,000  Level FlightAware ADS-B (EGLF / FAB)
Wed 05:02:58 PM 49.5375 2.3990 331° Northwest 427 491 38,000  Level FlightAware ADS-B (LERS / REU)
Wed 05:03:28 PM 49.5913 2.3538 331° Northwest 433 498 38,000  Level FlightAware ADS-B
Wed 05:04:03 PM 49.6438 2.3094 331° Northwest 432 497 38,000  Level FlightAware ADS-B (EGLF / FAB)
Wed 05:04:34 PM 49.7057 2.2570 331° Northwest 431 496 38,000  Level FlightAware ADS-B
Wed 05:05:13 PM 49.7713 2.2015 331° Northwest 431 496 38,000  Level FlightAware ADS-B
Wed 05:05:44 PM 49.8259 2.1551 331° Northwest 430 495 38,000  Level FlightAware ADS-B (EGLF / FAB)
Wed 05:06:15 PM 49.8811 2.1081 331° Northwest 422 486 38,000  Level FlightAware ADS-B (EHGR / GLZ)
Wed 05:06:48 PM 49.9388 2.0590 331° Northwest 429 494 38,000  Level FlightAware ADS-B
Wed 05:06:55 PM 49.9495 2.0498 331° Northwest 429 494 38,000  Level FlightAware ADS-B (LERS / REU)
Wed 05:07:07 PM 49.9641 2.0363 325° Northwest 426 490 38,000  Level FlightAware ADS-B
Wed 05:07:31 PM 50.0057 1.9875 318° Northwest 424 488 38,000  Level FlightAware ADS-B
Wed 05:07:50 PM 50.0332 1.9487 318° Northwest 424 488 38,000  Level FlightAware ADS-B
Wed 05:08:21 PM 50.0807 1.8817 318° Northwest 424 488 38,000  Level FlightAware ADS-B
Wed 05:08:55 PM 50.1301 1.8117 318° Northwest 426 490 38,000  Level FlightAware ADS-B
Wed 05:09:35 PM 50.1873 1.7302 318° Northwest 428 493 38,000  Level FlightAware ADS-B
Wed 05:10:00 PM 50.2250 1.6765 318° Northwest 429 494 38,000  Level FlightAware ADS-B (LRBS / BBU)
Wed 05:10:30 PM 50.2627 1.6224 317° Northwest 430 495 38,000  Level FlightAware ADS-B (EGLL / LHR)
Wed 05:11:00 PM 50.3113 1.5529 317° Northwest 430 495 38,000 95 Level FlightAware ADS-B (EGLL / LHR)
Wed 05:11:33 PM 50.3561 1.4880 317° Northwest 430 495 38,100 113 Climbing FlightAware ADS-B
Wed 05:11:53 PM 50.3900 1.4389 316° Northwest 422 486 38,100 -235 Level FlightAware ADS-B (EGHI / SOU)
Wed 05:12:24 PM 50.4322 1.3780 317° Northwest 424 488 37,900 -1,161 Descending FlightAware ADS-B (EGLF / FAB)
Wed 05:12:55 PM 50.4762 1.3144 317° Northwest 420 483 36,900 -2,149 Descending FlightAware ADS-B
Wed 05:13:31 PM 50.5285 1.2383 317° Northwest 418 481 35,500 -2,273 Descending FlightAware ADS-B (EGLL / LHR)
Wed 05:14:01 PM 50.5711 1.1764 317° Northwest 406 467 34,400 -2,651 Descending FlightAware ADS-B (EGLL / LHR)
Wed 05:14:14 PM 50.5889 1.1502 317° Northwest 406 467 33,600 -3,286 Descending FlightAware ADS-B (LRBS / BBU)
Wed 05:14:43 PM 50.6279 1.0928 317° Northwest 414 476 32,100 -3,639 Descending FlightAware ADS-B (EGLF / FAB)
Wed 05:15:15 PM 50.6700 1.0314 322° Northwest 424 488 29,900 -4,308 Descending FlightAware ADS-B (EGLL / LHR)
Wed 05:15:22 PM 50.6830 1.0155 325° Northwest 426 490 29,300 -4,636 Descending FlightAware ADS-B (EGLF / FAB)
Wed 05:15:37 PM 50.7109 0.9880 329° Northwest 431 496 28,200 -4,216 Descending FlightAware ADS-B
Wed 05:15:59 PM 50.7502 0.9531 330° Northwest 432 497 26,700 -4,138 Descending FlightAware ADS-B (EGHI / SOU)
Wed 05:16:06 PM 50.7611 0.9434 330° Northwest 437 503 26,200 -3,200 Descending FlightAware ADS-B
Wed 05:16:14 PM 50.7755 0.9306 330° Northwest 429 494 25,900 -2,684 Descending FlightAware ADS-B (LERS / REU)
Wed 05:16:44 PM 50.8275 0.8840 330° Northwest 423 487 24,500 -2,727 Descending FlightAware ADS-B
Wed 05:17:09 PM 50.8672 0.8481 328° Northwest 416 479 23,400 -2,813 Descending FlightAware ADS-B
Wed 05:17:16 PM 50.8802 0.8333 322° Northwest 413 475 23,000 -3,000 Descending FlightAware ADS-B
Wed 05:17:21 PM 50.8879 0.8227 316° Northwest 403 464 22,800 -2,400 Descending FlightAware ADS-B (EGHI / SOU)
Wed 05:17:31 PM 50.9003 0.8020 310° West 405 466 22,400 -4,125 Descending FlightAware ADS-B
Wed 05:17:37 PM 50.9057 0.7914 310° West 405 466 21,700 -3,600 Descending FlightAware ADS-B (EGBP)
Wed 05:17:46 PM 50.9184 0.7645 307° West 402 463 21,500 -2,250 Descending FlightAware ADS-B
Wed 05:18:01 PM 50.9334 0.7324 305° West 397 457 20,800 -3,000 Descending FlightAware ADS-B (EGHI / SOU)
Wed 05:18:14 PM 50.9480 0.7007 305° West 395 455 20,100 -3,667 Descending FlightAware ADS-B
Wed 05:18:19 PM 50.9536 0.6884 306° West 399 459 19,700 -2,919 Descending FlightAware ADS-B
Wed 05:18:51 PM 50.9871 0.6154 306° West 388 447 18,300 -2,818 Descending FlightAware ADS-B
Wed 05:19:25 PM 51.0218 0.5392 306° West 386 444 16,600 -2,818 Descending FlightAware ADS-B
Wed 05:19:57 PM 51.0371 0.5054 306° West 377 434 15,200 -2,700 Descending FlightAware ADS-B (EGSR)
Wed 05:20:05 PM 51.0637 0.4478 310° West 376 433 14,800 -2,571 Descending FlightAware ADS-B
Wed 05:20:39 PM 51.1047 0.3816 316° Northwest 366 421 13,400 -1,900 Descending FlightAware ADS-B (LERS / REU)
Wed 05:21:05 PM 51.1352 0.3315 310° West 367 422 12,900 -1,256 Descending FlightAware ADS-B
Wed 05:21:22 PM 51.1517 0.2947 304° West 356 410 12,500 -1,313 Descending FlightAware ADS-B
Wed 05:21:37 PM 51.1656 0.2614 304° West 344 396 12,200 -1,200 Descending FlightAware ADS-B
Wed 05:21:42 PM 51.1676 0.2564 304° West 339 390 12,100 -1,263 Descending FlightAware ADS-B (EGLF / FAB)
Wed 05:21:56 PM 51.1814 0.2237 304° West 328 377 11,800 -1,091 Descending FlightAware ADS-B
Wed 05:22:26 PM 51.2035 0.1715 306° West 309 356 11,300 -923 Descending FlightAware ADS-B (EGSR)
Wed 05:22:35 PM 51.2153 0.1497 318° Northwest 304 350 11,200 -1,000 Descending FlightAware ADS-B
Wed 05:22:38 PM 51.2183 0.1457 322° Northwest 303 349 11,100 -750 Descending FlightAware ADS-B (EGKK / LGW)
Wed 05:22:43 PM 51.2186 0.1454 308° West 308 354 11,100 -375 Level FlightAware ADS-B (EGSR)
Wed 05:22:54 PM 51.2368 0.1266 328° Northwest 291 335 11,000 -353 Descending FlightAware ADS-B
Wed 05:23:00 PM 51.2427 0.1208 321° Northwest 304 350 11,000  Level FlightAware ADS-B
Wed 05:23:16 PM 51.2605 0.1034 327° Northwest 271 312 11,000  Level FlightAware ADS-B (LERS / REU)
Wed 05:23:23 PM 51.2683 0.0957 328° Northwest 276 318 11,000  Level FlightAware ADS-B (EGLF / FAB)
Wed 05:23:38 PM 51.2838 0.0806 329° Northwest 277 319 11,000 -150 Level FlightAware ADS-B
Wed 05:24:03 PM 51.3098 0.0553 329° Northwest 275 316 10,900 -698 Descending FlightAware ADS-B (EGLF / FAB)
Wed 05:24:21 PM 51.3319 0.0338 329° Northwest 274 315 10,500 -1,565 Descending FlightAware ADS-B
Wed 05:24:26 PM 51.3362 0.0297 330° Northwest 275 316 10,300 -2,471 Descending FlightAware ADS-B (EGLF / FAB)
Wed 05:24:38 PM 51.3511 0.0201 347° North 279 321 9,800 -2,526 Descending FlightAware ADS-B (EGKK / LGW)
Wed 05:24:45 PM 51.3575 0.0188 357° North 281 323 9,500 -2,250 Descending FlightAware ADS-B
Wed 05:24:54 PM 51.3725 0.0181 359° North 271 312 9,200 -2,286 Descending FlightAware ADS-B (LERS / REU)
Wed 05:25:06 PM 51.3875 0.0180 359° North 275 316 8,700 -2,308 Descending FlightAware ADS-B (EGLF / FAB)
Wed 05:25:20 PM 51.4049 0.0180 360° North 275 316 8,200 -2,333 Descending FlightAware ADS-B
Wed 05:25:24 PM 51.4087 0.0179 359° North 275 316 8,000 -2,800 Descending FlightAware ADS-B (EGLF / FAB)
Wed 05:25:35 PM 51.4219 0.0180 North 276 318 7,500 -2,500 Descending FlightAware ADS-B (EGHP)
Wed 05:26:00 PM 51.4531 0.0184 North 272 313 6,500 -2,043 Descending FlightAware ADS-B
Wed 05:26:22 PM 51.4833 0.0188 North 260 299 5,900 -1,615 Descending FlightAware ADS-B
Wed 05:26:26 PM 51.4874 0.0188 360° North 257 296 5,800 -923 Descending FlightAware ADS-B
Wed 05:26:35 PM 51.4988 0.0162 North 261 300 5,700 -1,059 Descending FlightAware ADS-B
Wed 05:26:43 PM 51.5059 0.0110 332° Northwest 239 275 5,500 -1,091 Descending FlightAware ADS-B (EGLF / FAB)
Wed 05:26:46 PM 51.5091 0.0074 323° Northwest 228 262 5,500 -1,286 Level FlightAware ADS-B
Wed 05:26:57 PM 51.5164 -0.0063 301° West 230 265 5,200 -1,667 Descending FlightAware ADS-B
Wed 05:27:04 PM 51.5188 -0.0157 285° West 229 264 5,000 -1,765 Descending FlightAware ADS-B (EGLC / LCY)
Wed 05:27:14 PM 51.5196 -0.0346 262° West 230 265 4,700 -1,600 Descending FlightAware ADS-B
Wed 05:27:19 PM 51.5185 -0.0424 253° West 229 264 4,600 -667 Descending FlightAware ADS-B
Wed 05:27:23 PM 51.5166 -0.0493 243° Southwest 229 264 4,600 -632 Level FlightAware ADS-B
Wed 05:27:38 PM 51.5080 -0.0710 237° Southwest 217 250 4,400 88,000 Descending FlightAware ADS-B
Wed 05:27:44 PM 51.5056 -0.0767 235° Southwest 219 252 35,400 -857 Climbing FlightAware ADS-B
Wed 05:27:59 PM 51.4966 -0.0974 235° Southwest 208 239 4,100 -59,063 Descending FlightAware ADS-B
Wed 05:28:16 PM 51.4875 -0.1185 235° Southwest 196 226 3,900 -692 Descending FlightAware ADS-B
Wed 05:28:25 PM 51.4828 -0.1295 238° Southwest 182 209 3,800 -857 Descending FlightAware ADS-B
Wed 05:28:30 PM 51.4813 -0.1328 236° Southwest 186 214 3,700 -1,200 Descending FlightAware ADS-B (EGLL / LHR)
Wed 05:28:35 PM 51.4796 -0.1369 235° Southwest 183 211 3,600 -1,333 Descending FlightAware ADS-B
Wed 05:28:48 PM 51.4721 -0.1546 238° Southwest 179 206 3,300 -1,034 Descending FlightAware ADS-B
Wed 05:29:04 PM 51.4678 -0.1731 255° West 177 204 3,100 -600 Descending FlightAware ADS-B (EGLF / FAB)
Wed 05:29:08 PM 51.4670 -0.1793 259° West 179 206 3,100 -632 Level FlightAware ADS-B
Wed 05:29:23 PM 51.4658 -0.1987 267° West 181 208 2,900 -968 Descending FlightAware ADS-B (EGLF / FAB)
Wed 05:29:39 PM 51.4655 -0.2193 269° West 179 206 2,600 -1,059 Descending FlightAware ADS-B (EGLC / LCY)
Wed 05:29:57 PM 51.4654 -0.2437 270° West 177 204 2,300 -909 Descending FlightAware ADS-B (EGKK / LGW)
Wed 05:30:12 PM 51.4654 -0.2620 270° West 161 185 2,100 -938 Descending FlightAware ADS-B
Wed 05:30:29 PM 51.4654 -0.2828 270° West 159 183 1,800 -857 Descending FlightAware ADS-B
Wed 05:30:47 PM 51.4654 -0.3033 270° West 159 183 1,600 -706 Descending FlightAware ADS-B (EGLF / FAB)
Wed 05:31:03 PM 51.4653 -0.3218 270° West 155 178 1,400 -750 Descending FlightAware ADS-B (EGLF / FAB)
Wed 05:31:19 PM 51.4652 -0.3394 270° West 143 165 1,200 -909 Descending FlightAware ADS-B (EGLC / LCY)
Wed 05:31:36 PM 51.4652 -0.3567 270° West 128 147 900 -769 Descending FlightAware ADS-B
Wed 05:31:58 PM 51.4652 -0.3771 270° West 127 146 700 -600 Descending FlightAware ADS-B
Wed 05:32:16 PM 51.4651 -0.3905 270° West 127 146 500 -769 Descending FlightAware ADS-B (EGLL / LHR)
Wed 05:32:37 PM 51.4650 -0.4142 270° West 125 144 200 -667 Descending FlightAware ADS-B
Wed 05:32:52 PM 51.4650 -0.4279 270° West 124 143 100 -400 Descending FlightAware ADS-B

Login

Don't have an account? Register now (free) for customized features, flight alerts, and more!